This is the latest recevied weather packets stored in our database for station/object IN3XSV-13. If no packets are shown the sender has not sent any weather packets the latest 10 day(s).
| Time | Temp. | Humidity | Pressure | Rain* | Wind** | Luminosity | Snow |
|---|---|---|---|---|---|---|---|
| 1787558274 | 25.56° C | 60% | 1013 hPa | 0 mm | - | - | - |
| 1787557974 | 26.11° C | 59% | 1013 hPa | 0 mm | - | - | - |
| 1787557674 | 26.11° C | 59% | 1013.1 hPa | 0 mm | - | - | - |
| 1787557374 | 26.67° C | 59% | 1013.1 hPa | 0 mm | - | - | - |
| 1787557074 | 26.11° C | 59% | 1013.1 hPa | 0 mm | - | - | - |
| 1787556774 | 26.67° C | 58% | 1013.1 hPa | 0 mm | - | - | - |
| 1787556474 | 26.67° C | 59% | 1013.2 hPa | 0 mm | - | - | - |
| 1787556174 | 27.22° C | 59% | 1013.2 hPa | 0 mm | - | - | - |
| 1787555874 | 27.22° C | 61% | 1013.2 hPa | 0 mm | - | - | - |
| 1787555574 | 26.67° C | 62% | 1013.2 hPa | 0 mm | - | - | - |
| 1787555274 | 26.67° C | 63% | 1013.2 hPa | 0 mm | - | - | - |
| 1787554974 | 25.56° C | 66% | 1013.2 hPa | 0 mm | - | - | - |
| 1787554674 | 25.56° C | 67% | 1013.2 hPa | 0 mm | - | - | - |
| 1787554374 | 25° C | 70% | 1013.2 hPa | 0 mm | - | - | - |
| 1787554074 | 24.44° C | 71% | 1013.2 hPa | 0 mm | - | - | - |
| 1787553774 | 22.78° C | 75% | 1013.2 hPa | 0 mm | - | - | - |
| 1787553474 | 21.67° C | 78% | 1013.2 hPa | 0 mm | - | - | - |
| 1787553174 | 20.56° C | 80% | 1013.2 hPa | 0 mm | - | - | - |
| 1787552874 | 20° C | 81% | 1013.3 hPa | 0 mm | - | - | - |
| 1787552574 | 19.44° C | 83% | 1013.3 hPa | 0 mm | - | - | - |
| 1787552274 | 18.89° C | 83% | 1013.5 hPa | 0 mm | - | - | - |
| 1787551974 | 18.89° C | 84% | 1013.5 hPa | 0 mm | - | - | - |
| 1787551674 | 18.33° C | 85% | 1013.5 hPa | 0 mm | - | - | - |
| 1787551374 | 17.78° C | 85% | 1013.6 hPa | 0 mm | - | - | - |
| 1787551074 | 17.22° C | 86% | 1013.6 hPa | 0 mm | - | - | - |
* Rain latest hour (hover to see other rain measurements)
** Current wind speed in m/s (hover to see current wind gust speed)